Terminal Aerodrome Forecast
Issued by NWS Missoula, MT

Home | Current Version | Previous Version | Text Only | Print | Product List | Glossary On
Versions: 1 2 3 4 5 6 7 8 9 10 11 12
000
FTUS45 KMSO 252326
TAFMSO
TAF
KMSO 252326Z 2600/2624 32008KT P6SM VCSH BKN100
     FM260600 33008KT P6SM -SHRA OVC035
     FM261000 34006KT 5SM -SHSNRA BKN015 OVC030
     FM261500 34008KT 6SM -SHRA BKN030
     FM261800 33006KT P6SM VCSH BKN050=

USA.gov is the U.S. government's official web portal to all federal, state and local government web resources and services.